createdAt,value
2023-09-19T00:02:00.907Z,100656.34
2023-09-19T00:04:30.188Z,100658.13
2023-09-19T00:06:57.773Z,100655.47
2023-09-19T00:09:28.600Z,100663.59
2023-09-19T00:11:56.234Z,100661.03
2023-09-19T00:14:26.593Z,100678.72
2023-09-19T00:16:55.675Z,100671.78
2023-09-19T00:19:24.512Z,100663.97
2023-09-19T00:21:54.121Z,100669.34
2023-09-19T00:24:24.482Z,100670.38
2023-09-19T00:26:52.078Z,100672.25
2023-09-19T00:29:19.933Z,100678.56
2023-09-19T00:31:47.475Z,100676.94
2023-09-19T00:34:17.580Z,100676.16
2023-09-19T00:36:46.260Z,100685.19
2023-09-19T00:39:14.382Z,100680.88
2023-09-19T00:41:41.962Z,100687.19
2023-09-19T00:44:10.557Z,100681.19
2023-09-19T00:46:38.285Z,100693.63
2023-09-19T00:49:06.424Z,100687.50
2023-09-19T00:51:36.826Z,100695.50
2023-09-19T00:54:05.583Z,100690.31
2023-09-19T00:56:33.152Z,100700.19
2023-09-19T00:59:00.762Z,100701.19
2023-09-19T01:01:29.574Z,100701.25
2023-09-19T01:03:57.316Z,100711.94
2023-09-19T01:06:25.152Z,100705.91
2023-09-19T01:08:56.902Z,100713.94
2023-09-19T01:11:44.072Z,100728.97
2023-09-19T01:14:49.201Z,100719.44
2023-09-19T01:17:41.706Z,100721.31
2023-09-19T01:20:29.056Z,100717.88
2023-09-19T01:23:26.196Z,100721.41
2023-09-19T01:26:57.072Z,100724.91
2023-09-19T01:29:45.332Z,100725.03
2023-09-19T01:32:18.257Z,100725.97
2023-09-19T01:34:53.904Z,100732.13
2023-09-19T01:37:32.700Z,100742.78
2023-09-19T01:40:20.650Z,100743.72
2023-09-19T01:43:28.865Z,100741.06
2023-09-19T01:46:30.579Z,100746.50
2023-09-19T01:49:03.375Z,100741.38
2023-09-19T01:52:17.925Z,100747.66
2023-09-19T01:54:53.992Z,100746.09
2023-09-19T01:57:34.098Z,100741.78
2023-09-19T02:00:09.633Z,100739.28
2023-09-19T02:02:48.914Z,100741.16
2023-09-19T02:05:28.939Z,100740.31
2023-09-19T02:07:57.265Z,100751.03
2023-09-19T02:10:24.987Z,100746.63
2023-09-19T02:12:52.739Z,100752.03
2023-09-19T02:15:20.487Z,100751.19
2023-09-19T02:17:48.119Z,100751.19
2023-09-19T02:20:16.098Z,100755.69
2023-09-19T02:22:44.172Z,100758.41
2023-09-19T02:25:12.151Z,100762.97
2023-09-19T02:27:40.885Z,100762.97
2023-09-19T02:30:08.941Z,100760.47
2023-09-19T02:32:44.106Z,100767.63
2023-09-19T02:35:12.429Z,100773.81
2023-09-19T02:37:40.144Z,100760.75
2023-09-19T02:40:19.946Z,100772.25
2023-09-19T02:42:55.093Z,100775.03
2023-09-19T02:45:24.779Z,100781.34
2023-09-19T02:47:52.340Z,100784.03
2023-09-19T02:50:19.921Z,100774.47
2023-09-19T02:52:49.815Z,100778.97
2023-09-19T02:55:21.083Z,100775.59
2023-09-19T02:57:55.811Z,100770.34
2023-09-19T03:00:24.965Z,100776.66
2023-09-19T03:02:56.203Z,100775.84
2023-09-19T03:05:24.930Z,100787.44
2023-09-19T03:07:56.759Z,100784.06
2023-09-19T03:10:26.102Z,100786.75
2023-09-19T03:12:54.077Z,100796.53
2023-09-19T03:15:22.983Z,100794.84
2023-09-19T03:17:54.826Z,100785.22
2023-09-19T03:20:24.526Z,100785.38
2023-09-19T03:22:54.369Z,100790.72
2023-09-19T03:25:24.274Z,100790.78
2023-09-19T03:27:53.167Z,100785.50
2023-09-19T03:30:22.396Z,100786.47
2023-09-19T03:32:51.678Z,100783.91
2023-09-19T03:35:20.557Z,100787.47
2023-09-19T03:37:49.283Z,100792.78
2023-09-19T03:40:18.621Z,100784.03
2023-09-19T03:42:46.253Z,100785.03
2023-09-19T03:45:15.505Z,100777.16
2023-09-19T03:48:15.116Z,100777.22
2023-09-19T03:50:45.058Z,100778.16
2023-09-19T03:53:13.696Z,100777.28
2023-09-19T03:55:41.259Z,100780.81
2023-09-19T03:58:09.624Z,100771.09
2023-09-19T04:00:39.678Z,100777.28
2023-09-19T04:03:08.908Z,100772.94
2023-09-19T04:05:36.533Z,100778.22
2023-09-19T04:08:04.397Z,100776.44
2023-09-19T04:10:31.913Z,100780.88
2023-09-19T04:12:59.454Z,100779.13
2023-09-19T04:15:27.006Z,100775.63
2023-09-19T04:17:56.100Z,100770.34
2023-09-19T04:20:24.377Z,100772.13
2023-09-19T04:22:52.524Z,100780.97
2023-09-19T04:25:20.275Z,100793.41
2023-09-19T04:27:48.865Z,100797.84
2023-09-19T04:30:17.307Z,100794.41
2023-09-19T04:32:44.987Z,100797.97
2023-09-19T04:35:12.622Z,100807.59
2023-09-19T04:37:42.756Z,100814.75
2023-09-19T04:40:20.820Z,100819.22
2023-09-19T04:42:58.363Z,100820.06
2023-09-19T04:45:27.483Z,100828.09
2023-09-19T04:47:56.028Z,100841.22
2023-09-19T04:50:24.548Z,100844.81
2023-09-19T04:52:52.312Z,100841.22
2023-09-19T04:55:20.845Z,100840.38
2023-09-19T04:57:51.668Z,100844.75
2023-09-19T05:00:28.708Z,100846.50
2023-09-19T05:02:58.217Z,100849.09
2023-09-19T05:05:27.167Z,100853.38
2023-09-19T05:07:55.588Z,100845.41
2023-09-19T05:10:23.386Z,100848.00
2023-09-19T05:12:54.726Z,100851.44
2023-09-19T05:15:22.430Z,100855.78
2023-09-19T05:17:55.437Z,100853.94
2023-09-19T05:20:33.516Z,100854.72
2023-09-19T05:23:13.301Z,100855.63
2023-09-19T05:25:41.981Z,100857.38
2023-09-19T05:28:13.216Z,100856.47
2023-09-19T05:30:49.016Z,100867.03
2023-09-19T05:33:18.323Z,100861.63
2023-09-19T05:35:48.191Z,100851.94
2023-09-19T05:38:20.040Z,100858.06
2023-09-19T05:40:47.687Z,100858.06
2023-09-19T05:43:15.636Z,100858.91
2023-09-19T05:45:43.283Z,100864.94
2023-09-19T05:48:17.593Z,100849.88
2023-09-19T05:50:48.026Z,100859.50
2023-09-19T05:53:17.157Z,100866.53
2023-09-19T05:55:45.008Z,100866.47
2023-09-19T05:58:18.045Z,100861.09
2023-09-19T06:00:48.363Z,100862.78
2023-09-19T06:03:16.160Z,100856.56
2023-09-19T06:05:43.786Z,100850.28
2023-09-19T06:08:11.309Z,100855.50
2023-09-19T06:10:38.963Z,100865.03
2023-09-19T06:13:07.444Z,100871.91
2023-09-19T06:15:37.280Z,100858.56
2023-09-19T06:18:06.110Z,100859.38
2023-09-19T06:20:36.546Z,100863.66
2023-09-19T06:23:04.537Z,100856.47
2023-09-19T06:25:32.668Z,100858.09
2023-09-19T06:28:00.252Z,100869.44
2023-09-19T06:30:30.537Z,100872.78
2023-09-19T06:32:59.888Z,100870.00
2023-09-19T06:35:33.993Z,100873.31
2023-09-19T06:38:08.038Z,100874.97
2023-09-19T06:40:36.176Z,100876.63
2023-09-19T06:43:06.308Z,100880.06
2023-09-19T06:45:33.940Z,100887.78
2023-09-19T06:48:04.108Z,100897.38
2023-09-19T06:50:34.205Z,100894.50
2023-09-19T06:53:02.654Z,100901.47
2023-09-19T06:55:32.667Z,100896.03
2023-09-19T06:58:03.914Z,100888.75
2023-09-19T07:00:58.059Z,100896.50
2023-09-19T07:03:29.948Z,100898.19
2023-09-19T07:05:59.803Z,100886.53
2023-09-19T07:08:27.661Z,100888.22
2023-09-19T07:10:57.769Z,100888.00
2023-09-19T07:13:26.415Z,100894.09
2023-09-19T07:15:54.160Z,100888.56
2023-09-19T07:18:22.005Z,100896.38
2023-09-19T07:20:52.825Z,100889.22
2023-09-19T07:23:23.429Z,100899.66
2023-09-19T07:26:01.104Z,100901.97
2023-09-19T07:28:29.499Z,100912.34
2023-09-19T07:30:57.536Z,100913.94
2023-09-19T07:33:29.452Z,100904.97
2023-09-19T07:35:57.415Z,100914.59
2023-09-19T07:38:25.993Z,100904.63
2023-09-19T07:40:53.565Z,100900.91
2023-09-19T07:43:21.174Z,100896.34
2023-09-19T07:45:49.267Z,100902.13
2023-09-19T07:51:24.437Z,100894.44
2023-09-19T07:53:52.082Z,100907.97
2023-09-19T07:56:23.727Z,100905.69
2023-09-19T07:58:51.570Z,100907.56
2023-09-19T08:01:19.345Z,100900.88
2023-09-19T08:03:47.085Z,100901.47
2023-09-19T08:06:15.605Z,100915.88
2023-09-19T08:08:43.350Z,100918.88
2023-09-19T08:11:13.756Z,100916.44
2023-09-19T08:13:44.744Z,100913.16
2023-09-19T08:16:12.521Z,100908.03
2023-09-19T08:18:43.208Z,100907.59
2023-09-19T08:21:14.159Z,100914.47
2023-09-19T08:23:43.167Z,100912.59
2023-09-19T08:26:10.707Z,100913.38
2023-09-19T08:28:41.807Z,100912.41
2023-09-19T08:31:10.892Z,100920.06
2023-09-19T08:33:39.398Z,100917.00
2023-09-19T08:36:08.446Z,100917.50
2023-09-19T08:38:37.961Z,100918.13
2023-09-19T08:41:09.736Z,100911.78
2023-09-19T08:43:37.848Z,100915.84
2023-09-19T08:46:20.480Z,100910.78
2023-09-19T08:49:06.228Z,100917.28
2023-09-19T08:51:49.462Z,100918.50
2023-09-19T08:54:30.413Z,100926.06
2023-09-19T08:57:06.285Z,100917.81
2023-09-19T08:59:36.394Z,100921.22
2023-09-19T09:02:12.987Z,100920.19
2023-09-19T09:04:46.563Z,100929.66
2023-09-19T09:07:15.717Z,100920.41
2023-09-19T09:09:48.157Z,100922.59
2023-09-19T09:12:19.204Z,100916.56
2023-09-19T09:14:50.945Z,100913.56
2023-09-19T09:17:21.556Z,100914.69
2023-09-19T09:19:49.457Z,100917.44
2023-09-19T09:22:17.729Z,100923.44
2023-09-19T09:24:59.521Z,100923.19
2023-09-19T09:27:27.080Z,100922.13
2023-09-19T09:29:57.857Z,100923.75
2023-09-19T09:32:35.753Z,100924.09
2023-09-19T09:35:15.833Z,100922.47
2023-09-19T09:37:44.801Z,100922.09
2023-09-19T09:40:18.101Z,100916.97
2023-09-19T09:42:53.521Z,100907.56
2023-09-19T09:45:33.941Z,100886.47
2023-09-19T09:48:04.711Z,100891.44
2023-09-19T09:50:39.652Z,100886.69
2023-09-19T09:53:29.254Z,100896.22
2023-09-19T09:56:01.007Z,100895.94
2023-09-19T09:58:33.018Z,100903.06
2023-09-19T10:01:03.059Z,100900.69
2023-09-19T10:03:41.769Z,100892.22
2023-09-19T10:06:24.959Z,100902.41
2023-09-19T10:09:13.095Z,100903.78
2023-09-19T10:11:48.320Z,100898.81
2023-09-19T10:17:05.721Z,100879.50
2023-09-19T10:19:51.986Z,100898.63
2023-09-19T10:22:23.271Z,100894.53
2023-09-19T10:25:02.286Z,100894.34
2023-09-19T10:27:38.595Z,100900.31
2023-09-19T10:30:09.702Z,100886.94
2023-09-19T10:32:42.335Z,100902.63
2023-09-19T10:35:14.332Z,100888.16
2023-09-19T10:37:45.865Z,100881.75
2023-09-19T10:40:17.198Z,100897.59
2023-09-19T10:42:49.635Z,100916.63
2023-09-19T10:45:21.612Z,100885.97
2023-09-19T10:47:49.518Z,100885.66
2023-09-19T10:50:26.964Z,100889.78
2023-09-19T10:52:59.416Z,100891.28
2023-09-19T10:55:31.195Z,100890.53
2023-09-19T10:58:01.653Z,100897.78
2023-09-19T11:00:35.449Z,100883.81
2023-09-19T11:03:20.981Z,100885.66
2023-09-19T11:06:20.313Z,100882.31
2023-09-19T11:09:25.763Z,100895.09
2023-09-19T11:11:58.267Z,100870.63
2023-09-19T11:14:25.833Z,100867.28
2023-09-19T11:17:17.098Z,100863.19
2023-09-19T11:20:14.984Z,100856.78
2023-09-19T11:22:49.718Z,100846.97
2023-09-19T11:25:33.437Z,100841.63
2023-09-19T11:28:07.795Z,100848.38
2023-09-19T11:30:39.713Z,100842.72
2023-09-19T11:33:35.170Z,100837.69
2023-09-19T11:36:16.461Z,100846.13
2023-09-19T11:38:47.607Z,100830.63
2023-09-19T11:41:21.387Z,100823.78
2023-09-19T11:43:54.650Z,100824.63
2023-09-19T11:46:24.782Z,100824.63
2023-09-19T11:48:57.408Z,100821.66
2023-09-19T11:51:29.381Z,100817.47
2023-09-19T11:54:03.387Z,100810.50
2023-09-19T11:56:32.806Z,100816.97
2023-09-19T11:59:01.274Z,100823.53
2023-09-19T12:01:36.376Z,100814.19
2023-09-19T12:04:05.891Z,100794.16
2023-09-19T12:06:34.830Z,100804.84
2023-09-19T12:09:08.107Z,100813.38
2023-09-19T12:11:45.441Z,100804.03
2023-09-19T12:14:28.533Z,100800.06
2023-09-19T12:16:57.517Z,100802.63
2023-09-19T12:19:26.483Z,100800.06
2023-09-19T12:22:05.435Z,100816.75
2023-09-19T12:24:38.767Z,100809.91
2023-09-19T12:27:08.736Z,100804.16
2023-09-19T12:29:50.628Z,100804.50
2023-09-19T12:32:20.954Z,100798.03
2023-09-19T12:34:54.547Z,100801.91
2023-09-19T12:37:23.674Z,100807.00
2023-09-19T12:39:57.496Z,100802.38
2023-09-19T12:42:33.213Z,100801.81
2023-09-19T12:45:02.004Z,100813.16
2023-09-19T12:47:31.284Z,100820.44
2023-09-19T12:50:19.799Z,100805.31
2023-09-19T12:52:52.107Z,100818.09
2023-09-19T12:55:29.927Z,100809.47
2023-09-19T12:58:04.286Z,100811.75
2023-09-19T13:00:45.726Z,100817.25
2023-09-19T13:03:35.947Z,100815.25
2023-09-19T13:06:05.445Z,100822.94
2023-09-19T13:08:39.329Z,100818.53
2023-09-19T13:19:56.702Z,100814.34
2023-09-19T13:22:55.437Z,100812.63
2023-09-19T13:25:23.492Z,100813.56
2023-09-19T13:27:53.602Z,100805.06
2023-09-19T13:30:26.142Z,100825.03
2023-09-19T13:33:12.157Z,100812.78
2023-09-19T13:35:42.065Z,100819.00
2023-09-19T13:38:14.012Z,100821.44
2023-09-19T13:40:43.414Z,100806.91
2023-09-19T13:43:12.560Z,100815.00
2023-09-19T13:45:43.610Z,100817.59
2023-09-19T13:48:14.236Z,100815.97
2023-09-19T13:50:43.619Z,100817.13
2023-09-19T13:53:11.554Z,100813.09
2023-09-19T13:55:39.294Z,100813.19
2023-09-19T13:58:07.979Z,100807.84
2023-09-19T14:00:35.614Z,100809.56
2023-09-19T14:03:05.634Z,100814.69
2023-09-19T14:05:33.909Z,100809.78
2023-09-19T14:08:02.148Z,100804.22
2023-09-19T14:10:32.471Z,100802.09
2023-09-19T14:13:00.709Z,100803.06
2023-09-19T14:15:33.458Z,100813.41
2023-09-19T14:18:01.993Z,100803.81
2023-09-19T14:20:31.406Z,100810.09
2023-09-19T14:23:02.996Z,100804.97
2023-09-19T14:25:31.520Z,100790.97
2023-09-19T14:27:59.327Z,100808.75
2023-09-19T14:30:27.304Z,100808.75
2023-09-19T14:32:54.959Z,100816.63
2023-09-19T14:35:24.167Z,100810.44
2023-09-19T14:37:52.402Z,100810.53
2023-09-19T14:40:20.107Z,100805.41
2023-09-19T14:42:49.357Z,100810.75
2023-09-19T14:45:19.371Z,100802.94
2023-09-19T14:47:48.230Z,100803.34
2023-09-19T14:50:16.925Z,100788.50
2023-09-19T14:52:45.836Z,100800.16
2023-09-19T14:55:15.233Z,100792.47
2023-09-19T14:57:45.515Z,100787.34
2023-09-19T15:00:14.901Z,100784.56
2023-09-19T15:02:42.824Z,100774.72
2023-09-19T15:05:10.740Z,100785.66
2023-09-19T15:07:38.976Z,100774.06
2023-09-19T15:10:10.755Z,100779.66
2023-09-19T15:12:39.460Z,100772.81
2023-09-19T15:15:10.586Z,100781.78
2023-09-19T15:17:38.563Z,100783.94
2023-09-19T15:20:08.209Z,100788.28
2023-09-19T15:22:36.127Z,100778.78
2023-09-19T15:25:05.150Z,100782.44
2023-09-19T15:27:33.996Z,100787.97
2023-09-19T15:30:03.731Z,100774.09
2023-09-19T15:32:32.182Z,100780.38
2023-09-19T15:34:59.927Z,100777.84
2023-09-19T15:37:27.642Z,100784.78
2023-09-19T15:39:55.372Z,100770.78
2023-09-19T15:42:22.882Z,100774.53
2023-09-19T15:44:52.517Z,100768.63
2023-09-19T15:47:20.995Z,100768.09
2023-09-19T15:49:50.288Z,100770.22
2023-09-19T15:52:19.313Z,100768.72
2023-09-19T15:54:47.432Z,100773.53
2023-09-19T15:57:15.318Z,100769.13
2023-09-19T15:59:42.934Z,100767.63
2023-09-19T16:02:10.645Z,100762.50
2023-09-19T16:04:39.625Z,100770.72
2023-09-19T16:07:07.884Z,100777.09
2023-09-19T16:09:36.700Z,100769.31
2023-09-19T16:12:04.792Z,100769.50
2023-09-19T16:14:32.554Z,100786.56
2023-09-19T16:17:01.249Z,100786.66
2023-09-19T16:19:29.097Z,100783.47
2023-09-19T16:22:00.549Z,100785.47
2023-09-19T16:24:28.091Z,100780.53
2023-09-19T16:26:55.483Z,100790.38
2023-09-19T16:29:25.494Z,100782.53
2023-09-19T16:31:53.504Z,100794.06
2023-09-19T16:34:21.157Z,100790.63
2023-09-19T16:36:49.162Z,100785.44
2023-09-19T16:39:16.950Z,100797.88
2023-09-19T16:41:44.506Z,100800.78
2023-09-19T16:44:14.550Z,100792.78
2023-09-19T16:46:42.760Z,100795.84
2023-09-19T16:49:10.533Z,100803.06
2023-09-19T16:51:39.033Z,100799.56
2023-09-19T16:54:06.883Z,100801.34
2023-09-19T16:56:37.808Z,100800.72
2023-09-19T16:59:06.802Z,100794.72
2023-09-19T17:01:34.687Z,100808.13
2023-09-19T17:04:04.026Z,100800.16
2023-09-19T17:06:32.232Z,100800.44
2023-09-19T17:08:59.935Z,100802.28
2023-09-19T17:11:30.083Z,100798.84
2023-09-19T17:13:58.435Z,100798.94
2023-09-19T17:16:29.840Z,100807.09
2023-09-19T17:18:58.609Z,100796.56
2023-09-19T17:21:27.984Z,100807.31
2023-09-19T17:23:56.621Z,100808.38
2023-09-19T17:26:26.207Z,100803.06
2023-09-19T17:28:55.131Z,100803.16
2023-09-19T17:31:27.238Z,100805.06
2023-09-19T17:33:55.640Z,100794.38
2023-09-19T17:36:27.024Z,100793.72
2023-09-19T17:38:56.945Z,100794.78
2023-09-19T17:41:25.215Z,100792.28
2023-09-19T17:44:00.608Z,100795.94
2023-09-19T17:46:30.351Z,100796.97
2023-09-19T17:49:01.237Z,100792.50
2023-09-19T17:51:30.120Z,100802.41
2023-09-19T17:54:01.025Z,100790.09
2023-09-19T17:56:30.862Z,100797.13
2023-09-19T17:59:00.659Z,100791.88
2023-09-19T18:01:29.959Z,100792.84
2023-09-19T18:03:59.931Z,100798.28
2023-09-19T18:06:30.332Z,100806.34
2023-09-19T18:08:58.602Z,100792.28
2023-09-19T18:11:28.043Z,100799.41
2023-09-19T18:13:59.288Z,100807.41
2023-09-19T18:16:32.604Z,100810.06
2023-09-19T18:19:03.721Z,100813.78
2023-09-19T18:21:34.576Z,100816.47
2023-09-19T18:24:05.567Z,100823.47
2023-09-19T18:26:39.185Z,100813.03
2023-09-19T18:29:07.613Z,100825.50
2023-09-19T18:31:35.960Z,100817.88
2023-09-19T18:34:04.220Z,100813.59
2023-09-19T18:36:34.149Z,100811.97
2023-09-19T18:39:03.048Z,100822.84
2023-09-19T18:41:31.076Z,100823.84
2023-09-19T18:43:59.734Z,100823.84
2023-09-19T18:46:32.044Z,100825.97
2023-09-19T18:49:01.105Z,100821.69
2023-09-19T18:51:32.403Z,100820.81
2023-09-19T18:54:12.809Z,100817.38
2023-09-19T18:56:43.475Z,100824.59
2023-09-19T18:59:15.323Z,100822.91
2023-09-19T19:01:45.060Z,100824.72
2023-09-19T19:04:13.870Z,100821.19
2023-09-19T19:06:42.507Z,100825.66
2023-09-19T19:09:10.677Z,100821.28
2023-09-19T19:11:39.820Z,100817.75
2023-09-19T19:14:07.967Z,100831.19
2023-09-19T19:16:38.535Z,100815.09
2023-09-19T19:19:09.516Z,100823.06
2023-09-19T19:21:40.535Z,100814.31
2023-09-19T19:24:08.482Z,100812.63
2023-09-19T19:26:37.574Z,100806.47
2023-09-19T19:29:08.373Z,100811.78
2023-09-19T19:31:39.683Z,100816.06
2023-09-19T19:34:10.005Z,100814.31
2023-09-19T19:36:38.267Z,100814.31
2023-09-19T19:39:09.283Z,100807.31
2023-09-19T19:41:39.884Z,100810.06
2023-09-19T19:44:09.407Z,100803.88
2023-09-19T19:46:38.873Z,100801.00
2023-09-19T19:49:10.711Z,100807.31
2023-09-19T19:51:43.764Z,100804.63
2023-09-19T19:54:15.711Z,100811.78
2023-09-19T19:56:44.031Z,100824.22
2023-09-19T19:59:19.370Z,100824.22
2023-09-19T20:01:48.748Z,100825.19
2023-09-19T20:04:18.595Z,100826.09
2023-09-19T20:06:48.499Z,100816.44
2023-09-19T20:09:17.733Z,100810.25
2023-09-19T20:11:50.438Z,100811.19
2023-09-19T20:14:18.643Z,100817.47
2023-09-19T20:16:47.126Z,100816.44
2023-09-19T20:19:16.034Z,100823.66
2023-09-19T20:21:45.341Z,100824.59
2023-09-19T20:24:17.101Z,100821.84
2023-09-19T20:26:45.671Z,100834.38
2023-09-19T20:29:15.415Z,100829.81
2023-09-19T20:31:46.724Z,100825.34
2023-09-19T20:34:16.759Z,100819.25
2023-09-19T20:36:44.869Z,100825.53
2023-09-19T20:39:14.340Z,100831.72
2023-09-19T20:41:43.691Z,100827.25
2023-09-19T20:44:12.141Z,100825.53
2023-09-19T20:46:40.757Z,100825.53
2023-09-19T20:49:09.525Z,100821.06
2023-09-19T20:51:39.956Z,100821.16
2023-09-19T20:54:09.624Z,100824.59
2023-09-19T20:56:38.923Z,100814.97
2023-09-19T20:59:06.763Z,100817.47
2023-09-19T21:01:34.457Z,100819.16
2023-09-19T21:04:04.472Z,100811.09
2023-09-19T21:06:32.263Z,100820.03
2023-09-19T21:08:59.885Z,100806.72
2023-09-19T21:11:28.170Z,100817.28
2023-09-19T21:13:56.403Z,100813.75
2023-09-19T21:16:24.182Z,100804.81
2023-09-19T21:18:51.841Z,100815.47
2023-09-19T21:21:21.791Z,100805.78
2023-09-19T21:23:49.411Z,100811.09
2023-09-19T21:26:17.143Z,100807.47
2023-09-19T21:28:47.203Z,100795.97
2023-09-19T21:31:15.091Z,100800.44
2023-09-19T21:33:43.614Z,100802.28
2023-09-19T21:36:20.873Z,100798.72
2023-09-19T21:38:50.706Z,100803.13
2023-09-19T21:41:21.083Z,100807.47
2023-09-19T21:43:51.220Z,100804.81
2023-09-19T21:46:20.509Z,100794.16
2023-09-19T21:48:51.871Z,100793.31
2023-09-19T21:51:19.499Z,100788.97
2023-09-19T21:53:47.692Z,100797.88
2023-09-19T21:56:16.301Z,100788.84
2023-09-19T21:58:45.048Z,100788.00
2023-09-19T22:01:23.337Z,100789.44
2023-09-19T22:03:51.228Z,100787.91
2023-09-19T22:06:19.143Z,100792.38
2023-09-19T22:08:50.807Z,100796.81
2023-09-19T22:11:21.663Z,100799.50
2023-09-19T22:13:50.235Z,100789.88
2023-09-19T22:16:19.632Z,100794.28
2023-09-19T22:18:47.831Z,100785.53
2023-09-19T22:21:23.222Z,100793.53
2023-09-19T22:23:54.095Z,100797.19
2023-09-19T22:26:24.130Z,100784.09
2023-09-19T22:28:56.627Z,100783.13
2023-09-19T22:31:29.227Z,100778.69
2023-09-19T22:33:57.139Z,100776.94
2023-09-19T22:36:48.616Z,100777.81
2023-09-19T22:39:26.135Z,100778.78
2023-09-19T22:42:05.588Z,100771.72
2023-09-19T22:44:34.064Z,100780.59
2023-09-19T22:47:03.564Z,100769.06
2023-09-19T22:49:33.275Z,100772.69
2023-09-19T22:52:01.016Z,100770.03
2023-09-19T22:54:28.824Z,100772.69
2023-09-19T22:56:56.898Z,100765.75
2023-09-19T22:59:24.947Z,100764.97
2023-09-19T23:01:53.721Z,100762.41
2023-09-19T23:04:22.945Z,100768.88
2023-09-19T23:06:53.433Z,100762.78
2023-09-19T23:09:24.219Z,100765.72
2023-09-19T23:12:04.371Z,100761.41
2023-09-19T23:14:36.517Z,100759.88
2023-09-19T23:17:09.844Z,100755.53
2023-09-19T23:19:38.736Z,100762.84
2023-09-19T23:22:18.508Z,100764.78
2023-09-19T23:24:50.835Z,100763.16
2023-09-19T23:27:26.399Z,100761.56
2023-09-19T23:29:56.683Z,100761.72
2023-09-19T23:32:24.352Z,100763.53
2023-09-19T23:34:52.228Z,100771.59
2023-09-19T23:37:21.314Z,100762.09
2023-09-19T23:39:52.095Z,100765.63
2023-09-19T23:42:20.275Z,100768.44
2023-09-19T23:44:50.235Z,100773.75
2023-09-19T23:47:18.999Z,100773.75
2023-09-19T23:49:50.692Z,100780.91
2023-09-19T23:52:19.491Z,100778.22
2023-09-19T23:54:48.555Z,100779.16
2023-09-19T23:57:17.989Z,100781.06
2023-09-19T23:59:45.628Z,100789.03
